Terminal Aerodrome Forecast
Issued by NWS Kansas City/Pleasant Hill, MO

Current Version | Previous Version | Text Only | Print | Product List | Glossary On
Versions: 1 2 3 4 5 6 7 8 9 10 11 12 13 14 15 16 17 18 19 20 21
000
FTUS43 KEAX 012206 AAC
TAFMCI
TAF AMD
KMCI 012206Z 0122/0218 33010KT P6SM BKN025
     FM020300 34005KT P6SM BKN015=

USA.gov is the U.S. government's official web portal to all federal, state and local government web resources and services.